createdAt,value
2019-02-02T00:01:57.078Z,19.65
2019-02-02T00:04:30.139Z,20.62
2019-02-02T00:07:00.338Z,20.20
2019-02-02T00:09:30.566Z,19.07
2019-02-02T00:12:00.870Z,20.72
2019-02-02T00:14:31.054Z,19.67
2019-02-02T00:17:01.269Z,20.23
2019-02-02T00:19:31.504Z,20.25
2019-02-02T00:22:01.684Z,21.25
2019-02-02T00:24:32.459Z,20.55
2019-02-02T00:27:02.639Z,21.42
2019-02-02T00:29:32.858Z,19.17
2019-02-02T00:32:03.032Z,20.32
2019-02-02T00:34:33.467Z,20.75
2019-02-02T00:37:03.636Z,20.77
2019-02-02T00:39:33.816Z,22.20
2019-02-02T00:42:04.082Z,21.37
2019-02-02T00:44:34.351Z,22.48
2019-02-02T00:47:04.516Z,20.05
2019-02-02T00:49:34.710Z,20.62
2019-02-02T00:52:04.868Z,19.65
2019-02-02T00:54:35.114Z,20.55
2019-02-02T00:57:05.659Z,19.70
2019-02-02T00:59:35.881Z,22.75
2019-02-02T01:02:06.111Z,21.35
2019-02-02T01:04:36.314Z,22.02
2019-02-02T01:07:06.492Z,21.90
2019-02-02T01:09:36.640Z,21.55
2019-02-02T01:12:06.837Z,21.80
2019-02-02T01:14:37.074Z,22.17
2019-02-02T01:17:07.273Z,21.60
2019-02-02T01:19:37.512Z,22.95
2019-02-02T01:22:07.786Z,23.47
2019-02-02T01:24:38.101Z,22.95
2019-02-02T01:27:08.311Z,21.07
2019-02-02T01:29:38.562Z,20.85
2019-02-02T01:32:08.772Z,22.93
2019-02-02T01:34:39.172Z,22.30
2019-02-02T01:37:09.255Z,21.15
2019-02-02T01:39:39.611Z,20.80
2019-02-02T01:42:09.832Z,21.05
2019-02-02T01:44:40.041Z,22.10
2019-02-02T01:47:10.226Z,20.23
2019-02-02T01:49:40.402Z,20.80
2019-02-02T01:52:10.592Z,20.12
2019-02-02T01:54:40.826Z,21.40
2019-02-02T01:57:10.994Z,22.37
2019-02-02T01:59:41.205Z,21.10
2019-02-02T02:02:11.447Z,22.05
2019-02-02T02:04:41.644Z,21.65
2019-02-02T02:07:11.801Z,20.62
2019-02-02T02:09:43.114Z,20.68
2019-02-02T02:12:13.316Z,21.17
2019-02-02T02:14:43.533Z,20.95
2019-02-02T02:17:13.633Z,21.90
2019-02-02T02:19:43.877Z,21.23
2019-02-02T02:22:14.000Z,21.93
2019-02-02T02:24:45.225Z,22.15
2019-02-02T02:27:15.358Z,22.50
2019-02-02T02:29:45.560Z,21.73
2019-02-02T02:32:15.697Z,21.60
2019-02-02T02:34:45.899Z,21.37
2019-02-02T02:37:16.049Z,19.98
2019-02-02T02:39:46.205Z,23.35
2019-02-02T02:42:16.402Z,22.65
2019-02-02T02:44:46.591Z,22.17
2019-02-02T02:47:16.752Z,23.00
2019-02-02T02:49:46.962Z,22.50
2019-02-02T02:52:17.142Z,21.97
2019-02-02T02:54:47.311Z,22.25
2019-02-02T02:57:17.488Z,20.95
2019-02-02T02:59:47.945Z,22.95
2019-02-02T03:02:18.033Z,21.57
2019-02-02T03:04:48.180Z,22.20
2019-02-02T03:07:19.549Z,22.77
2019-02-02T03:09:50.034Z,21.90
2019-02-02T03:12:20.186Z,21.57
2019-02-02T03:14:50.427Z,22.32
2019-02-02T03:17:20.554Z,22.20
2019-02-02T03:19:50.703Z,21.97
2019-02-02T03:22:20.826Z,22.95
2019-02-02T03:24:50.976Z,22.67
2019-02-02T03:27:21.120Z,21.12
2019-02-02T03:29:51.403Z,23.40
2019-02-02T03:32:21.624Z,23.60
2019-02-02T03:34:51.789Z,22.67
2019-02-02T03:37:22.087Z,22.55
2019-02-02T03:39:52.227Z,24.80
2019-02-02T03:42:22.511Z,27.00
2019-02-02T03:44:52.682Z,26.20
2019-02-02T03:47:22.868Z,25.97
2019-02-02T03:49:53.021Z,25.02
2019-02-02T03:52:23.290Z,24.47
2019-02-02T03:54:53.414Z,24.40
2019-02-02T03:57:23.625Z,23.80
2019-02-02T03:59:53.707Z,23.30
2019-02-02T04:02:24.029Z,23.87
2019-02-02T04:04:54.179Z,25.45
2019-02-02T04:07:24.404Z,25.45
2019-02-02T04:09:54.563Z,23.42
2019-02-02T04:12:24.789Z,23.98
2019-02-02T04:14:55.030Z,25.27
2019-02-02T04:17:25.313Z,23.83
2019-02-02T04:19:55.643Z,23.07
2019-02-02T04:22:25.783Z,23.75
2019-02-02T04:24:56.425Z,23.55
2019-02-02T04:27:26.736Z,26.30
2019-02-02T04:29:56.852Z,24.92
2019-02-02T04:32:27.223Z,23.92
2019-02-02T04:34:57.418Z,24.52
2019-02-02T04:37:27.671Z,25.15
2019-02-02T04:39:57.864Z,25.90
2019-02-02T04:42:28.112Z,25.00
2019-02-02T04:44:58.255Z,25.05
2019-02-02T04:47:28.575Z,24.27
2019-02-02T04:49:58.747Z,23.85
2019-02-02T04:52:29.673Z,24.15
2019-02-02T04:55:00.791Z,21.30
2019-02-02T04:57:30.963Z,23.98
2019-02-02T05:00:01.433Z,22.80
2019-02-02T05:02:31.546Z,23.57
2019-02-02T05:05:01.741Z,23.65
2019-02-02T05:07:31.966Z,23.65
2019-02-02T05:10:02.244Z,25.80
2019-02-02T05:12:32.382Z,25.08
2019-02-02T05:15:02.677Z,23.57
2019-02-02T05:17:32.831Z,24.80
2019-02-02T05:20:03.217Z,24.75
2019-02-02T05:22:33.421Z,24.47
2019-02-02T05:25:03.646Z,23.52
2019-02-02T05:27:33.901Z,25.23
2019-02-02T05:30:04.886Z,24.15
2019-02-02T05:32:35.061Z,22.70
2019-02-02T05:35:05.361Z,23.77
2019-02-02T05:37:35.468Z,23.47
2019-02-02T05:40:06.793Z,24.70
2019-02-02T05:42:37.022Z,24.47
2019-02-02T05:45:08.326Z,22.55
2019-02-02T05:47:38.489Z,24.27
2019-02-02T05:50:10.627Z,24.85
2019-02-02T05:52:40.804Z,24.23
2019-02-02T05:55:12.430Z,23.55
2019-02-02T05:57:42.689Z,22.90
2019-02-02T06:00:48.899Z,23.25
2019-02-02T06:03:19.111Z,25.48
2019-02-02T06:05:49.297Z,25.17
2019-02-02T06:08:19.431Z,24.98
2019-02-02T06:10:49.724Z,25.75
2019-02-02T06:13:19.930Z,24.27
2019-02-02T06:15:50.147Z,25.48
2019-02-02T06:18:20.347Z,24.72
2019-02-02T06:20:50.631Z,25.02
2019-02-02T06:23:20.811Z,24.67
2019-02-02T06:25:51.056Z,25.02
2019-02-02T06:28:21.229Z,24.90
2019-02-02T06:30:51.415Z,25.55
2019-02-02T06:33:21.570Z,23.87
2019-02-02T06:35:51.782Z,25.40
2019-02-02T06:38:21.969Z,25.77
2019-02-02T06:40:52.281Z,24.45
2019-02-02T06:43:22.417Z,25.40
2019-02-02T06:45:52.571Z,25.48
2019-02-02T06:48:22.818Z,25.27
2019-02-02T06:50:53.999Z,26.17
2019-02-02T06:53:24.199Z,24.70
2019-02-02T06:55:54.437Z,24.05
2019-02-02T06:58:24.594Z,24.15
2019-02-02T07:00:54.863Z,25.60
2019-02-02T07:03:24.987Z,24.40
2019-02-02T07:05:55.711Z,24.20
2019-02-02T07:08:25.850Z,25.50
2019-02-02T07:10:56.947Z,24.25
2019-02-02T07:13:27.224Z,24.37
2019-02-02T07:15:57.353Z,23.90
2019-02-02T07:18:27.563Z,25.12
2019-02-02T07:20:57.797Z,25.20
2019-02-02T07:23:27.909Z,25.50
2019-02-02T07:25:58.231Z,24.25
2019-02-02T07:28:28.458Z,26.00
2019-02-02T07:30:58.725Z,24.87
2019-02-02T07:33:29.313Z,25.17
2019-02-02T07:35:59.508Z,24.87
2019-02-02T07:38:29.722Z,25.45
2019-02-02T07:40:59.943Z,24.95
2019-02-02T07:43:30.108Z,25.52
2019-02-02T07:46:00.347Z,25.82
2019-02-02T07:48:30.487Z,25.57
2019-02-02T07:51:00.844Z,26.25
2019-02-02T07:53:31.105Z,25.72
2019-02-02T07:56:01.539Z,26.57
2019-02-02T07:58:31.603Z,25.40
2019-02-02T08:01:01.751Z,27.65
2019-02-02T08:03:31.853Z,25.25
2019-02-02T08:06:02.222Z,25.05
2019-02-02T08:08:32.417Z,26.25
2019-02-02T08:11:02.582Z,27.17
2019-02-02T08:13:32.784Z,27.25
2019-02-02T08:16:02.953Z,26.87
2019-02-02T08:18:33.172Z,27.10
2019-02-02T08:21:03.386Z,27.30
2019-02-02T08:23:33.617Z,25.82
2019-02-02T08:26:03.745Z,26.07
2019-02-02T08:28:33.993Z,27.40
2019-02-02T08:31:05.215Z,26.87
2019-02-02T08:33:35.496Z,27.17
2019-02-02T08:36:06.688Z,26.17
2019-02-02T08:38:37.011Z,27.55
2019-02-02T08:41:07.168Z,25.57
2019-02-02T08:43:38.076Z,27.62
2019-02-02T08:46:08.362Z,27.82
2019-02-02T08:48:38.655Z,26.07
2019-02-02T08:51:09.811Z,25.72
2019-02-02T08:53:40.094Z,26.10
2019-02-02T08:56:11.018Z,25.43
2019-02-02T08:58:41.245Z,25.90
2019-02-02T09:01:11.337Z,27.73
2019-02-02T09:03:41.501Z,28.12
2019-02-02T09:06:11.643Z,27.17
2019-02-02T09:08:41.865Z,27.02
2019-02-02T09:11:12.023Z,28.23
2019-02-02T09:13:42.236Z,28.00
2019-02-02T09:16:12.396Z,26.12
2019-02-02T09:18:44.482Z,26.75
2019-02-02T09:21:14.696Z,26.73
2019-02-02T09:23:44.885Z,25.65
2019-02-02T09:26:15.056Z,27.93
2019-02-02T09:28:45.367Z,25.60
2019-02-02T09:31:16.228Z,26.95
2019-02-02T09:33:46.548Z,26.33
2019-02-02T09:36:17.125Z,27.62
2019-02-02T09:38:47.399Z,27.40
2019-02-02T09:41:19.703Z,28.10
2019-02-02T09:43:51.558Z,27.58
2019-02-02T09:46:21.870Z,27.75
2019-02-02T09:48:52.203Z,28.15
2019-02-02T09:51:22.343Z,27.25
2019-02-02T09:53:53.630Z,27.25
2019-02-02T09:56:23.963Z,26.95
2019-02-02T09:58:54.172Z,28.00
2019-02-02T10:01:27.728Z,27.05
2019-02-02T10:03:57.950Z,28.42
2019-02-02T10:06:28.227Z,28.12
2019-02-02T10:08:58.370Z,26.75
2019-02-02T10:11:28.568Z,27.90
2019-02-02T10:13:58.751Z,26.37
2019-02-02T10:16:29.021Z,27.17
2019-02-02T10:18:59.261Z,28.12
2019-02-02T10:21:29.492Z,27.15
2019-02-02T10:23:59.690Z,28.25
2019-02-02T10:26:29.876Z,28.70
2019-02-02T10:29:00.026Z,28.90
2019-02-02T10:31:39.118Z,28.55
2019-02-02T10:34:01.972Z,27.32
2019-02-02T10:36:32.145Z,27.55
2019-02-02T10:39:04.223Z,27.82
2019-02-02T10:41:35.472Z,28.40
2019-02-02T10:44:05.655Z,27.85
2019-02-02T10:46:35.779Z,28.40
2019-02-02T10:49:05.998Z,28.27
2019-02-02T10:51:36.188Z,26.15
2019-02-02T10:54:06.483Z,25.92
2019-02-02T10:56:36.693Z,27.95
2019-02-02T10:59:06.809Z,27.42
2019-02-02T11:01:37.091Z,27.80
2019-02-02T11:04:25.685Z,27.95
2019-02-02T11:06:56.021Z,28.17
2019-02-02T11:09:26.442Z,29.18
2019-02-02T11:11:56.574Z,29.00
2019-02-02T11:14:26.862Z,29.85
2019-02-02T11:16:57.051Z,27.20
2019-02-02T11:19:27.341Z,28.80
2019-02-02T11:21:57.617Z,28.17
2019-02-02T11:24:27.761Z,29.12
2019-02-02T11:26:57.957Z,29.07
2019-02-02T11:29:28.122Z,28.27
2019-02-02T11:32:02.875Z,27.15
2019-02-02T11:34:30.147Z,29.02
2019-02-02T11:37:00.328Z,30.20
2019-02-02T11:39:30.518Z,28.70
2019-02-02T11:42:00.779Z,28.55
2019-02-02T11:44:30.947Z,28.23
2019-02-02T11:47:01.202Z,30.02
2019-02-02T11:49:31.415Z,30.20
2019-02-02T11:52:01.587Z,30.25
2019-02-02T11:54:31.972Z,29.05
2019-02-02T11:57:02.814Z,29.02
2019-02-02T11:59:33.371Z,28.27
2019-02-02T12:02:14.271Z,31.17
2019-02-02T12:04:38.999Z,30.08
2019-02-02T12:07:09.389Z,29.42
2019-02-02T12:09:42.244Z,30.30
2019-02-02T12:12:12.484Z,26.73
2019-02-02T12:14:42.625Z,30.85
2019-02-02T12:17:12.850Z,27.95
2019-02-02T12:19:43.429Z,28.40
2019-02-02T12:22:19.487Z,28.75
2019-02-02T12:24:52.004Z,27.90
2019-02-02T12:27:22.235Z,27.85
2019-02-02T12:29:52.324Z,27.55
2019-02-02T12:32:26.911Z,27.73
2019-02-02T12:34:54.689Z,27.70
2019-02-02T12:37:24.843Z,27.42
2019-02-02T12:39:54.982Z,28.55
2019-02-02T12:42:25.248Z,29.07
2019-02-02T12:44:55.390Z,29.05
2019-02-02T12:47:25.616Z,28.67
2019-02-02T12:49:55.788Z,28.47
2019-02-02T12:52:26.020Z,28.30
2019-02-02T12:54:56.874Z,28.42
2019-02-02T12:57:27.096Z,29.12
2019-02-02T12:59:57.253Z,29.27
2019-02-02T13:02:37.921Z,30.45
2019-02-02T13:04:59.341Z,29.25
2019-02-02T13:07:29.606Z,29.82
2019-02-02T13:09:59.798Z,29.65
2019-02-02T13:12:30.063Z,27.85
2019-02-02T13:15:00.459Z,28.67
2019-02-02T13:17:30.630Z,28.95
2019-02-02T13:20:00.821Z,29.00
2019-02-02T13:22:31.058Z,27.42
2019-02-02T13:25:01.364Z,28.10
2019-02-02T13:27:31.570Z,27.07
2019-02-02T13:30:01.731Z,25.55
2019-02-02T13:32:31.935Z,26.82
2019-02-02T13:35:02.117Z,28.98
2019-02-02T13:37:33.434Z,27.90
2019-02-02T13:40:03.829Z,29.77
2019-02-02T13:42:34.000Z,27.02
2019-02-02T13:45:06.892Z,27.82
2019-02-02T13:47:36.008Z,26.70
2019-02-02T13:50:33.067Z,27.50
2019-02-02T13:53:03.584Z,26.87
2019-02-02T13:55:33.799Z,30.40
2019-02-02T13:58:04.065Z,28.38
2019-02-02T14:00:34.270Z,28.07
2019-02-02T14:03:04.499Z,27.73
2019-02-02T14:05:34.804Z,29.70
2019-02-02T14:08:06.625Z,29.20
2019-02-02T14:10:36.912Z,28.27
2019-02-02T14:13:07.140Z,30.15
2019-02-02T14:15:39.389Z,27.75
2019-02-02T14:18:09.218Z,28.80
2019-02-02T14:20:39.363Z,28.65
2019-02-02T14:23:09.551Z,27.65
2019-02-02T14:25:39.776Z,27.65
2019-02-02T14:28:10.156Z,28.47
2019-02-02T14:30:40.347Z,30.27
2019-02-02T14:33:14.216Z,27.32
2019-02-02T14:35:42.353Z,27.85
2019-02-02T14:38:12.450Z,26.82
2019-02-02T14:40:42.921Z,27.65
2019-02-02T14:43:13.223Z,29.50
2019-02-02T14:45:43.433Z,27.00
2019-02-02T14:48:13.618Z,27.85
2019-02-02T14:50:43.770Z,25.35
2019-02-02T14:53:16.530Z,28.25
2019-02-02T14:55:46.143Z,29.07
2019-02-02T14:58:16.464Z,28.75
2019-02-02T15:00:46.622Z,28.73
2019-02-02T15:03:25.600Z,29.72
2019-02-02T15:05:49.192Z,29.60
2019-02-02T15:08:19.416Z,29.32
2019-02-02T15:10:49.590Z,26.02
2019-02-02T15:13:19.773Z,27.93
2019-02-02T15:15:49.946Z,28.20
2019-02-02T15:18:20.199Z,28.87
2019-02-02T15:20:50.450Z,28.15
2019-02-02T15:23:20.728Z,28.75
2019-02-02T15:25:50.947Z,28.30
2019-02-02T15:28:22.331Z,29.50
2019-02-02T15:30:52.446Z,28.12
2019-02-02T15:33:24.073Z,27.10
2019-02-02T15:35:54.290Z,29.00
2019-02-02T15:38:26.843Z,27.85
2019-02-02T15:40:59.333Z,26.10
2019-02-02T15:43:29.251Z,26.87
2019-02-02T15:45:59.452Z,27.55
2019-02-02T15:48:29.644Z,24.75
2019-02-02T15:50:59.819Z,25.20
2019-02-02T15:53:30.001Z,26.15
2019-02-02T15:56:00.619Z,26.87
2019-02-02T15:58:32.068Z,27.00
2019-02-02T16:01:02.255Z,28.47
2019-02-02T16:03:32.641Z,27.77
2019-02-02T16:06:02.842Z,26.40
2019-02-02T16:08:33.189Z,27.87
2019-02-02T16:11:03.387Z,27.10
2019-02-02T16:13:33.634Z,26.48
2019-02-02T16:16:03.812Z,27.58
2019-02-02T16:18:34.227Z,28.32
2019-02-02T16:21:04.420Z,29.72
2019-02-02T16:23:34.768Z,26.62
2019-02-02T16:26:05.027Z,29.72
2019-02-02T16:28:35.201Z,28.20
2019-02-02T16:31:05.536Z,29.77
2019-02-02T16:33:35.734Z,31.15
2019-02-02T16:36:05.947Z,29.25
2019-02-02T16:38:36.175Z,28.83
2019-02-02T16:41:06.412Z,28.77
2019-02-02T16:43:36.697Z,30.17
2019-02-02T16:46:06.799Z,29.98
2019-02-02T16:48:37.030Z,28.87
2019-02-02T16:51:07.492Z,28.92
2019-02-02T16:53:37.736Z,30.30
2019-02-02T16:56:08.009Z,31.52
2019-02-02T16:58:38.240Z,29.48
2019-02-02T17:01:08.415Z,29.72
2019-02-02T17:03:38.679Z,32.13
2019-02-02T17:06:09.039Z,32.83
2019-02-02T17:08:39.359Z,34.50
2019-02-02T17:11:09.662Z,31.33
2019-02-02T17:13:39.906Z,30.17
2019-02-02T17:16:10.003Z,30.80
2019-02-02T17:18:40.233Z,34.05
2019-02-02T17:21:10.416Z,33.33
2019-02-02T17:23:40.710Z,29.75
2019-02-02T17:26:10.957Z,31.05
2019-02-02T17:28:41.149Z,30.55
2019-02-02T17:31:11.623Z,29.72
2019-02-02T17:33:42.124Z,28.85
2019-02-02T17:36:12.312Z,27.87
2019-02-02T17:38:42.584Z,27.30
2019-02-02T17:41:12.934Z,29.18
2019-02-02T17:43:43.543Z,28.10
2019-02-02T17:46:13.745Z,28.17
2019-02-02T17:48:44.024Z,30.30
2019-02-02T17:51:14.130Z,28.00
2019-02-02T17:53:44.373Z,28.65
2019-02-02T17:56:14.564Z,27.35
2019-02-02T17:58:44.672Z,27.85
2019-02-02T18:01:14.849Z,26.57
2019-02-02T18:03:45.097Z,24.85
2019-02-02T18:06:15.270Z,26.55
2019-02-02T18:08:45.438Z,28.50
2019-02-02T18:11:15.593Z,26.97
2019-02-02T18:13:45.853Z,27.22
2019-02-02T18:16:17.093Z,26.87
2019-02-02T18:18:47.220Z,26.15
2019-02-02T18:21:17.370Z,27.13
2019-02-02T18:23:47.506Z,25.72
2019-02-02T18:26:17.978Z,26.62
2019-02-02T18:28:48.231Z,26.12
2019-02-02T18:31:18.515Z,28.70
2019-02-02T18:33:48.755Z,29.37
2019-02-02T18:36:18.982Z,29.45
2019-02-02T18:38:49.138Z,30.08
2019-02-02T18:41:19.321Z,28.10
2019-02-02T18:43:49.559Z,28.70
2019-02-02T18:46:19.714Z,29.87
2019-02-02T18:48:49.982Z,27.77
2019-02-02T18:51:20.174Z,29.20
2019-02-02T18:53:51.366Z,27.42
2019-02-02T18:56:21.714Z,28.42
2019-02-02T18:58:51.903Z,29.32
2019-02-02T19:01:22.085Z,28.60
2019-02-02T19:03:52.534Z,27.75
2019-02-02T19:06:22.743Z,27.13
2019-02-02T19:08:53.112Z,27.67
2019-02-02T19:11:23.301Z,26.85
2019-02-02T19:13:53.532Z,30.02
2019-02-02T19:16:23.722Z,27.82
2019-02-02T19:18:53.943Z,28.75
2019-02-02T19:21:24.215Z,29.42
2019-02-02T19:23:54.449Z,31.35
2019-02-02T19:26:25.685Z,37.70
2019-02-02T19:28:55.954Z,38.70
2019-02-02T19:31:26.191Z,32.28
2019-02-02T19:33:56.462Z,36.85
2019-02-02T19:36:26.643Z,29.63
2019-02-02T19:38:56.944Z,32.30
2019-02-02T19:41:27.149Z,31.48
2019-02-02T19:43:57.417Z,31.20
2019-02-02T19:46:27.614Z,31.65
2019-02-02T19:48:57.860Z,28.15
2019-02-02T19:51:28.159Z,31.77
2019-02-02T19:53:58.482Z,28.47
2019-02-02T19:56:28.782Z,29.98
2019-02-02T19:58:59.102Z,30.65
2019-02-02T20:01:29.339Z,28.77
2019-02-02T20:03:59.650Z,29.57
2019-02-02T20:06:30.020Z,31.15
2019-02-02T20:09:00.294Z,30.10
2019-02-02T20:11:30.595Z,31.12
2019-02-02T20:14:01.000Z,30.82
2019-02-02T20:16:31.221Z,28.98
2019-02-02T20:19:01.485Z,27.07
2019-02-02T20:21:31.725Z,28.12
2019-02-02T20:24:01.976Z,30.97
2019-02-02T20:26:32.178Z,27.52
2019-02-02T20:29:02.510Z,27.98
2019-02-02T20:31:32.727Z,27.67
2019-02-02T20:34:03.013Z,26.95
2019-02-02T20:36:34.301Z,26.30
2019-02-02T20:39:07.449Z,26.15
2019-02-02T20:41:37.714Z,26.02
2019-02-02T20:44:07.944Z,26.57
2019-02-02T20:46:39.979Z,27.02
2019-02-02T20:49:10.300Z,25.52
2019-02-02T20:51:40.759Z,27.05
2019-02-02T20:54:11.191Z,26.52
2019-02-02T20:56:41.739Z,28.02
2019-02-02T20:59:12.125Z,28.23
2019-02-02T21:01:42.391Z,27.10
2019-02-02T21:04:12.699Z,27.27
2019-02-02T21:06:43.037Z,27.58
2019-02-02T21:09:13.723Z,28.32
2019-02-02T21:11:44.014Z,26.80
2019-02-02T21:14:14.342Z,28.52
2019-02-02T21:16:44.614Z,28.47
2019-02-02T21:19:14.854Z,29.23
2019-02-02T21:21:45.307Z,28.42
2019-02-02T21:24:15.636Z,28.23
2019-02-02T21:26:58.086Z,28.75
2019-02-02T21:29:28.408Z,27.40
2019-02-02T21:31:58.876Z,28.25
2019-02-02T21:34:29.134Z,28.05
2019-02-02T21:36:59.622Z,26.80
2019-02-02T21:39:29.884Z,27.95
2019-02-02T21:42:00.078Z,26.97
2019-02-02T21:44:30.605Z,26.57
2019-02-02T21:47:02.564Z,26.42
2019-02-02T21:49:32.813Z,26.50
2019-02-02T21:52:02.989Z,25.52
2019-02-02T21:54:33.265Z,25.72
2019-02-02T21:57:03.835Z,27.62
2019-02-02T21:59:33.985Z,26.07
2019-02-02T22:02:04.202Z,25.70
2019-02-02T22:04:34.408Z,25.88
2019-02-02T22:07:04.543Z,24.63
2019-02-02T22:09:35.059Z,26.57
2019-02-02T22:12:05.478Z,25.90
2019-02-02T22:14:35.710Z,25.35
2019-02-02T22:17:05.880Z,24.92
2019-02-02T22:19:36.120Z,26.40
2019-02-02T22:22:06.593Z,24.98
2019-02-02T22:24:36.861Z,23.10
2019-02-02T22:27:08.310Z,23.45
2019-02-02T22:29:38.674Z,24.27
2019-02-02T22:32:08.820Z,23.40
2019-02-02T22:34:39.433Z,22.75
2019-02-02T22:37:09.677Z,24.63
2019-02-02T22:39:39.943Z,23.38
2019-02-02T22:42:10.115Z,23.67
2019-02-02T22:44:40.305Z,23.47
2019-02-02T22:47:10.479Z,23.57
2019-02-02T22:49:40.733Z,25.40
2019-02-02T22:52:10.900Z,24.10
2019-02-02T22:54:41.208Z,24.50
2019-02-02T22:57:11.407Z,23.20
2019-02-02T22:59:41.656Z,25.75
2019-02-02T23:02:16.283Z,23.62
2019-02-02T23:05:06.152Z,24.67
2019-02-02T23:08:02.420Z,23.95
2019-02-02T23:11:13.404Z,26.07
2019-02-02T23:14:17.487Z,23.57
2019-02-02T23:16:47.741Z,23.35
2019-02-02T23:19:17.901Z,22.95
2019-02-02T23:21:48.111Z,25.45
2019-02-02T23:24:18.282Z,26.40
2019-02-02T23:26:48.480Z,22.48
2019-02-02T23:29:18.640Z,22.65
2019-02-02T23:31:48.839Z,22.80
2019-02-02T23:34:18.983Z,21.45
2019-02-02T23:36:51.792Z,21.93
2019-02-02T23:39:21.025Z,20.85
2019-02-02T23:41:51.268Z,21.30
2019-02-02T23:44:21.592Z,21.25
2019-02-02T23:46:51.860Z,21.25
2019-02-02T23:49:22.292Z,20.90
2019-02-02T23:51:52.549Z,20.70
2019-02-02T23:54:22.764Z,20.50
2019-02-02T23:56:53.068Z,20.15
2019-02-02T23:59:23.235Z,21.17
